Time;durP1;ratioP1;P1;durP2;ratioP2;P2;SDS_P1;SDS_P2;PMS_P1;PMS_P2;Temp;Humidity;BMP_temperature;BMP_pressure;BME280_temperature;BME280_humidity;BME280_pressure;Samples;Min_cycle;Max_cycle;Signal;HPM_P1;HPM_P2
2024/04/19 00:01:38;;;;;;;13.18;2.47;;;;;;;11.43;78.43;101490.03;5520986;25;20005;-42
2024/04/19 00:04:04;;;;;;;8.30;2.25;;;;;;;11.54;79.33;101479.81;5521923;25;20476;-42
2024/04/19 00:06:29;;;;;;;6.93;2.17;;;;;;;11.81;77.91;101482.97;5520882;25;20005;-43
2024/04/19 00:08:54;;;;;;;9.50;2.30;;;;;;;11.76;78.63;101482.91;5522863;25;20005;-44
2024/04/19 00:11:19;;;;;;;8.88;2.30;;;;;;;11.76;77.64;101472.44;5524926;25;19993;-42
2024/04/19 00:13:45;;;;;;;9.63;2.33;;;;;;;11.62;79.00;101453.00;5524051;25;20060;-42
2024/04/19 00:16:10;;;;;;;10.55;2.65;;;;;;;11.96;77.36;101454.50;5524790;25;20063;-43
2024/04/19 00:18:35;;;;;;;17.10;3.13;;;;;;;11.73;78.89;101453.19;5523976;25;20002;-41
2024/04/19 00:21:01;;;;;;;9.00;2.50;;;;;;;11.76;79.02;101443.72;5524759;25;20077;-48
2024/04/19 00:23:26;;;;;;;9.57;2.50;;;;;;;11.40;79.42;101438.63;5525247;25;19998;-42
2024/04/19 00:25:51;;;;;;;8.25;2.47;;;;;;;11.43;80.78;101435.22;5524950;25;20005;-42
2024/04/19 00:28:17;;;;;;;8.10;2.42;;;;;;;11.87;78.71;101423.00;5524560;25;20069;-45
2024/04/19 00:30:42;;;;;;;10.23;2.90;;;;;;;11.62;79.65;101419.03;5523885;25;20149;-42
2024/04/19 00:33:07;;;;;;;10.65;2.83;;;;;;;11.56;79.17;101423.28;5524897;25;20012;-41
2024/04/19 00:35:33;;;;;;;7.53;2.60;;;;;;;11.48;81.13;101415.28;5523714;25;20006;-41
2024/04/19 00:37:58;;;;;;;14.88;2.90;;;;;;;11.65;79.68;101411.25;5524001;25;20317;-42
2024/04/19 00:40:24;;;;;;;10.70;3.00;;;;;;;11.89;79.02;101402.13;5523744;25;19993;-42
2024/04/19 00:42:50;;;;;;;9.90;3.15;;;;;;;11.77;78.92;101400.19;5524338;25;20009;-41
2024/04/19 00:45:38;;;;;;;10.27;3.00;;;;;;;11.59;80.24;101391.97;5524275;25;19998;-41
2024/04/19 00:48:09;;;;;;;12.63;3.13;;;;;;;11.30;82.07;101391.47;5524232;25;20009;-42
2024/04/19 00:50:35;;;;;;;7.05;3.05;;;;;;;11.64;81.03;101386.00;5523597;25;19997;-43
2024/04/19 00:53:01;;;;;;;12.20;3.15;;;;;;;11.32;81.42;101375.00;5523903;25;20455;-42
2024/04/19 00:55:28;;;;;;;12.02;2.97;;;;;;;11.43;81.25;101376.91;5521385;25;20443;-42
2024/04/19 00:57:55;;;;;;;9.05;2.50;;;;;;;11.67;79.79;101352.09;5522008;25;19993;-42
2024/04/19 01:00:21;;;;;;;9.50;3.10;;;;;;;11.40;81.69;101359.47;5491386;26;20030;-43
2024/04/19 01:02:48;;;;;;;9.82;2.83;;;;;;;11.46;83.06;101358.69;5521065;25;20069;-42
2024/04/19 01:05:13;;;;;;;14.45;2.95;;;;;;;11.51;83.16;101359.66;5521352;26;20005;-42
2024/04/19 01:07:39;;;;;;;9.23;2.83;;;;;;;11.87;81.19;101347.22;5520465;25;20009;-44
2024/04/19 01:10:05;;;;;;;13.05;3.30;;;;;;;11.54;82.14;101347.50;5522317;25;20069;-41
2024/04/19 01:12:30;;;;;;;16.98;3.05;;;;;;;11.77;82.10;101343.56;5521081;25;20012;-41
2024/04/19 01:14:55;;;;;;;9.98;3.20;;;;;;;11.66;82.83;101331.16;5523562;25;19994;-42
2024/04/19 01:17:21;;;;;;;12.02;3.10;;;;;;;11.52;83.53;101322.25;5521302;25;20024;-44
2024/04/19 01:19:46;;;;;;;12.68;3.78;;;;;;;11.77;82.54;101321.81;5521080;25;20012;-42
2024/04/19 01:22:12;;;;;;;12.73;3.65;;;;;;;11.53;83.19;101318.75;5521863;26;20005;-41
2024/04/19 01:24:44;;;;;;;9.30;3.40;;;;;;;11.83;82.39;101302.75;5490802;25;19997;-42
2024/04/19 01:27:09;;;;;;;11.05;3.58;;;;;;;11.68;83.29;101301.63;5523187;25;19998;-42
2024/04/19 01:29:36;;;;;;;10.25;3.65;;;;;;;11.58;84.55;101299.72;5522911;25;20476;-43
2024/04/19 01:32:03;;;;;;;12.88;4.15;;;;;;;11.35;84.95;101304.53;5524344;26;20001;-44
2024/04/19 01:34:28;;;;;;;11.57;4.05;;;;;;;11.36;84.44;101293.25;5525628;25;20346;-43
2024/04/19 01:36:54;;;;;;;12.20;4.00;;;;;;;11.09;86.63;101287.56;5526053;25;20005;-42
2024/04/19 01:39:19;;;;;;;16.88;4.35;;;;;;;11.67;85.36;101276.34;5524227;25;20012;-42
2024/04/19 01:41:44;;;;;;;13.77;4.10;;;;;;;11.67;84.77;101270.25;5525780;25;20009;-41
2024/04/19 01:44:10;;;;;;;13.63;4.78;;;;;;;11.71;85.75;101266.84;5528362;25;20484;-40
2024/04/19 01:46:35;;;;;;;12.15;4.40;;;;;;;11.97;84.79;101256.78;5529910;25;20674;-40
2024/04/19 01:49:00;;;;;;;12.90;4.53;;;;;;;11.72;85.85;101259.00;5530063;25;20001;-42
2024/04/19 01:51:26;;;;;;;12.35;4.13;;;;;;;11.63;86.67;101245.84;5528543;25;20008;-42
2024/04/19 01:53:51;;;;;;;12.38;4.05;;;;;;;11.95;85.75;101243.72;5527874;25;20005;-41
2024/04/19 01:56:17;;;;;;;14.88;4.85;;;;;;;12.08;84.41;101242.13;5529360;25;19994;-41
2024/04/19 01:58:42;;;;;;;12.57;4.68;;;;;;;11.89;85.32;101241.03;5531748;25;20016;-40
2024/04/19 02:01:08;;;;;;;12.75;4.40;;;;;;;12.13;84.29;101245.69;5530539;25;19993;-41
2024/04/19 02:03:33;;;;;;;12.82;4.25;;;;;;;11.83;86.33;101227.00;5527621;25;19998;-41
2024/04/19 02:06:08;;;;;;;10.85;4.25;;;;;;;12.16;84.00;101225.69;5525587;25;20013;-41
2024/04/19 02:08:34;;;;;;;11.30;4.47;;;;;;;11.98;85.93;101221.97;5525354;25;19998;-41
2024/04/19 02:11:00;;;;;;;11.00;4.40;;;;;;;11.76;86.93;101226.91;5524345;25;20467;-42
2024/04/19 02:13:25;;;;;;;11.13;4.57;;;;;;;11.94;86.00;101215.81;5523929;25;20005;-50
2024/04/19 02:15:51;;;;;;;19.60;4.82;;;;;;;12.08;86.70;101209.03;5523634;25;19993;-42
2024/04/19 02:18:16;;;;;;;14.05;4.28;;;;;;;11.90;87.20;101210.53;5460973;26;20062;-42
2024/04/19 02:20:41;;;;;;;11.68;4.30;;;;;;;11.86;88.02;101200.91;5520404;25;20430;-41
2024/04/19 02:23:06;;;;;;;14.98;4.30;;;;;;;12.31;86.92;101188.41;5520408;26;20013;-44
2024/04/19 02:25:32;;;;;;;14.68;4.72;;;;;;;11.82;87.83;101189.53;5521573;25;20485;-41
2024/04/19 02:30:55;;;;;;;12.37;4.63;;;;;;;12.11;88.95;101174.22;5519132;25;20013;-40
2024/04/19 02:33:21;;;;;;;17.42;5.25;;;;;;;11.91;89.27;101183.53;5520105;25;20013;-45
2024/04/19 02:35:47;;;;;;;12.30;5.07;;;;;;;11.99;89.20;101174.06;5519961;25;20418;-42
2024/04/19 02:38:12;;;;;;;12.88;5.70;;;;;;;12.20;89.21;101175.19;5525239;25;19998;-41
2024/04/19 02:40:37;;;;;;;18.80;6.30;;;;;;;12.34;87.49;101161.41;5522522;25;19994;-41
2024/04/19 02:43:03;;;;;;;14.65;6.38;;;;;;;12.17;88.01;101164.72;5522357;25;20486;-41
2024/04/19 02:45:28;;;;;;;19.92;7.63;;;;;;;11.83;90.93;101173.03;5521148;25;20009;-42
2024/04/19 02:47:54;;;;;;;22.20;8.18;;;;;;;12.11;90.52;101156.81;5522087;25;20009;-42
2024/04/19 02:50:19;;;;;;;17.67;8.25;;;;;;;12.66;87.69;101152.16;5521827;25;20064;-42
2024/04/19 02:52:44;;;;;;;23.65;9.35;;;;;;;12.22;89.31;101151.69;5521990;25;20002;-40
2024/04/19 02:55:09;;;;;;;20.38;9.50;;;;;;;12.51;89.41;101147.63;5522338;25;20033;-41
2024/04/19 02:57:35;;;;;;;21.40;9.73;;;;;;;12.62;89.00;101142.53;5521455;25;20010;-43
2024/04/19 03:00:00;;;;;;;19.83;10.05;;;;;;;12.37;89.69;101148.38;5521777;25;20097;-41
2024/04/19 03:02:25;;;;;;;21.52;9.73;;;;;;;12.50;88.47;101137.19;5521331;25;20013;-41
2024/04/19 03:04:51;;;;;;;23.67;9.93;;;;;;;12.39;89.33;101134.44;5522123;25;19997;-41
2024/04/19 03:07:16;;;;;;;22.80;9.88;;;;;;;12.22;88.92;101138.63;5521925;25;20336;-41
2024/04/19 03:09:41;;;;;;;24.05;10.20;;;;;;;12.70;88.28;101124.25;5521461;25;20001;-43
2024/04/19 03:12:06;;;;;;;23.58;10.05;;;;;;;12.72;87.94;101119.94;5521881;25;20317;-42
2024/04/19 03:14:32;;;;;;;27.45;11.18;;;;;;;12.52;89.10;101119.75;5521442;25;20012;-43
2024/04/19 03:16:57;;;;;;;25.70;10.45;;;;;;;12.89;88.10;101113.09;5520794;25;20087;-40
2024/04/19 03:19:22;;;;;;;25.60;10.93;;;;;;;12.52;89.35;101111.91;5521811;25;20009;-42
2024/04/19 03:21:50;;;;;;;27.27;11.43;;;;;;;12.89;88.15;101108.75;5521791;25;20331;-42
2024/04/19 03:24:15;;;;;;;30.88;11.30;;;;;;;12.95;88.45;101105.28;5522040;25;20468;-42
2024/04/19 03:26:42;;;;;;;28.60;11.35;;;;;;;12.93;88.22;101105.28;5520970;25;20030;-44
2024/04/19 03:29:09;;;;;;;25.10;10.88;;;;;;;13.12;86.68;101101.06;5523513;25;20008;-41
2024/04/19 03:31:34;;;;;;;29.05;10.88;;;;;;;12.59;89.32;101096.28;5527649;25;20034;-42
2024/04/19 03:33:59;;;;;;;26.05;10.90;;;;;;;12.82;89.58;101093.84;5529723;25;19993;-41
2024/04/19 03:36:25;;;;;;;36.08;11.32;;;;;;;12.95;87.97;101081.75;5524640;25;20016;-41
2024/04/19 03:38:50;;;;;;;28.73;11.20;;;;;;;12.99;88.30;101089.59;5522845;25;20009;-43
2024/04/19 03:41:15;;;;;;;28.42;10.65;;;;;;;13.09;88.02;101073.97;5524078;25;19997;-42
2024/04/19 03:43:51;;;;;;;30.42;11.18;;;;;;;12.51;90.12;101078.75;5523106;25;20001;-41
2024/04/19 03:46:17;;;;;;;26.58;11.15;;;;;;;12.96;89.04;101075.66;5525160;25;20217;-42
2024/04/19 03:48:42;;;;;;;29.42;11.15;;;;;;;12.58;89.16;101080.56;5525639;25;22355;-41
2024/04/19 03:51:07;;;;;;;27.10;9.98;;;;;;;13.04;89.05;101083.56;5525573;25;20364;-42
2024/04/19 03:53:32;;;;;;;26.75;10.48;;;;;;;13.12;87.88;101076.59;5524621;25;20008;-41
2024/04/19 03:55:58;;;;;;;27.90;9.55;;;;;;;12.97;88.34;101073.03;5524604;25;20037;-43
2024/04/19 03:58:23;;;;;;;27.98;10.07;;;;;;;12.93;88.52;101071.25;5524641;25;20060;-42
2024/04/19 04:00:48;;;;;;;27.90;10.10;;;;;;;13.04;88.47;101067.84;5524600;25;19998;-41
2024/04/19 04:03:14;;;;;;;27.00;9.40;;;;;;;12.70;89.70;101064.97;5525182;25;20002;-41
2024/04/19 04:05:39;;;;;;;27.50;9.25;;;;;;;13.11;88.79;101059.19;5524178;25;20452;-44
2024/04/19 04:08:05;;;;;;;28.00;9.50;;;;;;;13.04;88.19;101055.66;5524713;25;20012;-41
2024/04/19 04:10:30;;;;;;;29.33;10.10;;;;;;;12.93;89.15;101052.06;5524984;25;20032;-42
2024/04/19 04:12:56;;;;;;;24.23;9.88;;;;;;;12.89;88.97;101051.19;5524492;25;20009;-42
2024/04/19 04:15:21;;;;;;;24.73;9.55;;;;;;;13.16;87.44;101045.28;5524905;25;20009;-40
2024/04/19 04:17:47;;;;;;;23.95;9.10;;;;;;;13.09;88.38;101047.81;5524482;25;20016;-41
2024/04/19 04:20:12;;;;;;;26.17;9.77;;;;;;;13.02;88.89;101044.28;5524778;25;20009;-41
2024/04/19 04:22:37;;;;;;;26.25;9.68;;;;;;;12.83;89.77;101040.66;5524516;25;19998;-42
2024/04/19 04:25:03;;;;;;;29.05;9.48;;;;;;;13.05;88.68;101036.47;5525123;25;19997;-43
2024/04/19 04:27:28;;;;;;;23.23;9.50;;;;;;;12.99;87.81;101036.44;5523325;25;20005;-42
2024/04/19 04:29:53;;;;;;;30.00;8.70;;;;;;;13.09;88.64;101034.72;5524723;25;20009;-43
2024/04/19 04:32:21;;;;;;;25.45;8.63;;;;;;;13.14;87.82;101038.28;5524793;25;20313;-46
2024/04/19 04:34:46;;;;;;;24.80;8.20;;;;;;;13.24;87.54;101040.06;5524032;25;19997;-40
2024/04/19 04:37:11;;;;;;;19.75;7.70;;;;;;;13.10;87.72;101021.66;5524052;25;20025;-40
2024/04/19 04:39:37;;;;;;;24.25;8.18;;;;;;;13.19;87.17;101032.19;5523853;25;20327;-41
2024/04/19 04:42:02;;;;;;;22.48;7.53;;;;;;;13.10;87.44;101024.28;5524610;25;20010;-40
2024/04/19 04:44:32;;;;;;;20.25;7.80;;;;;;;13.26;87.34;101026.13;5523997;25;20080;-40
2024/04/19 04:46:59;;;;;;;27.02;7.53;;;;;;;12.84;89.08;101034.56;5524311;25;20013;-44
2024/04/19 04:49:24;;;;;;;19.67;7.57;;;;;;;13.41;86.53;101035.81;5524018;25;20071;-44
2024/04/19 04:51:49;;;;;;;21.15;7.18;;;;;;;13.35;86.96;101020.94;5524225;25;20012;-40
2024/04/19 04:54:14;;;;;;;22.90;6.95;;;;;;;13.43;87.38;101031.44;5523244;25;20005;-41
2024/04/19 04:56:40;;;;;;;23.95;7.00;;;;;;;13.15;87.69;101040.03;5523304;25;20041;-41
2024/04/19 04:59:05;;;;;;;16.88;6.75;;;;;;;13.38;87.38;101041.88;5524280;25;20672;-41
2024/04/19 05:01:30;;;;;;;20.50;6.30;;;;;;;13.12;88.67;101039.97;5522900;25;20005;-42
2024/04/19 05:03:56;;;;;;;17.88;5.53;;;;;;;13.06;88.58;101037.31;5523598;25;20002;-41
2024/04/19 05:06:21;;;;;;;20.17;6.13;;;;;;;13.02;88.34;101046.91;5523887;25;20012;-38
2024/04/19 05:08:46;;;;;;;21.80;6.38;;;;;;;13.25;87.81;101039.19;5523504;25;20007;-44
2024/04/19 05:11:12;;;;;;;17.80;6.00;;;;;;;13.67;85.69;101038.50;5523461;25;20031;-41
2024/04/19 05:13:37;;;;;;;19.67;6.10;;;;;;;13.46;86.06;101028.84;5523381;25;19997;-41
2024/04/19 05:16:03;;;;;;;20.58;5.57;;;;;;;13.33;86.61;101042.75;5523650;25;20013;-40
2024/04/19 05:18:28;;;;;;;19.48;5.20;;;;;;;13.29;86.74;101039.25;5523207;25;20409;-41
2024/04/19 05:20:53;;;;;;;20.27;5.60;;;;;;;13.29;87.20;101030.50;5524022;25;19997;-42
2024/04/19 05:23:19;;;;;;;15.05;4.80;;;;;;;13.54;85.84;101047.22;5524329;25;20512;-42
2024/04/19 05:25:45;;;;;;;19.23;5.18;;;;;;;13.51;85.56;101034.97;5523356;25;19997;-40
2024/04/19 05:28:10;;;;;;;18.13;4.75;;;;;;;13.26;87.24;101035.72;5523611;25;19994;-41
2024/04/19 05:30:36;;;;;;;17.65;5.10;;;;;;;13.46;86.11;101034.06;5523282;25;20453;-42
2024/04/19 05:33:05;;;;;;;21.52;4.70;;;;;;;13.34;87.06;101036.63;5524085;25;20001;-41
2024/04/19 05:35:31;;;;;;;17.00;4.68;;;;;;;13.27;87.29;101037.47;5523622;25;20343;-42
2024/04/19 05:37:59;;;;;;;20.10;4.90;;;;;;;13.28;87.21;101028.75;5526497;25;20012;-41
2024/04/19 05:40:25;;;;;;;21.40;4.65;;;;;;;13.58;87.01;101034.13;5525449;25;19997;-41
2024/04/19 05:42:52;;;;;;;14.77;4.43;;;;;;;13.67;86.90;101034.13;5523168;25;19998;-42
2024/04/19 05:45:18;;;;;;;12.27;4.60;;;;;;;14.05;84.00;101028.13;5523336;25;20001;-40
2024/04/19 05:47:44;;;;;;;22.00;4.40;;;;;;;14.11;84.02;101038.63;5522527;25;20065;-41
2024/04/19 05:50:09;;;;;;;18.60;4.90;;;;;;;13.95;84.16;101035.09;5523544;25;20005;-40
2024/04/19 05:52:35;;;;;;;19.27;4.50;;;;;;;14.42;82.26;101027.31;5522952;25;20444;-40
2024/04/19 05:55:00;;;;;;;20.38;4.38;;;;;;;14.29;83.07;101028.16;5523660;25;20296;-43
2024/04/19 05:57:25;;;;;;;17.67;4.60;;;;;;;13.77;84.50;101024.56;5522840;25;20049;-41
2024/04/19 05:59:52;;;;;;;22.40;4.88;;;;;;;13.73;85.17;101026.28;5520738;25;20522;-42
2024/04/19 06:02:17;;;;;;;25.63;4.47;;;;;;;13.40;85.58;101024.44;5523096;25;20021;-41
2024/04/19 06:04:42;;;;;;;20.25;3.90;;;;;;;13.58;86.42;101017.53;5518758;25;20033;-40
2024/04/19 06:07:08;;;;;;;18.83;4.10;;;;;;;13.72;85.39;101018.44;5523052;25;19998;-40
2024/04/19 06:09:33;;;;;;;19.48;3.72;;;;;;;13.80;84.75;101016.72;5522526;25;19997;-43
2024/04/19 06:12:01;;;;;;;25.83;4.65;;;;;;;13.69;85.02;101023.66;5522929;25;19997;-42
2024/04/19 06:14:27;;;;;;;21.65;4.25;;;;;;;13.55;85.34;101020.13;5522803;25;20005;-41
2024/04/19 06:16:53;;;;;;;25.33;4.70;;;;;;;14.02;83.90;101022.88;5522786;25;19997;-40
2024/04/19 06:19:19;;;;;;;19.98;4.10;;;;;;;13.94;84.04;101016.75;5523167;25;20324;-42
2024/04/19 06:21:44;;;;;;;15.88;4.07;;;;;;;13.79;84.38;101014.94;5522736;25;20008;-42
2024/04/19 06:24:09;;;;;;;15.07;3.83;;;;;;;14.04;83.40;101001.03;5523194;25;20347;-44
2024/04/19 06:26:35;;;;;;;14.80;3.78;;;;;;;13.63;84.87;101011.44;5522945;25;20008;-40
2024/04/19 06:29:00;;;;;;;19.90;3.75;;;;;;;13.74;84.93;101011.44;5523012;25;20389;-41
2024/04/19 06:31:25;;;;;;;20.90;3.90;;;;;;;13.84;83.25;101002.75;5522054;25;20001;-39
2024/04/19 06:33:51;;;;;;;12.75;3.50;;;;;;;13.68;83.85;101009.69;5523183;25;20445;-43
2024/04/19 06:36:16;;;;;;;16.17;3.42;;;;;;;13.40;84.57;101016.59;5522255;25;20012;-44
2024/04/19 06:38:41;;;;;;;14.90;3.30;;;;;;;13.26;84.80;101023.50;5522364;25;20467;-42
2024/04/19 06:41:07;;;;;;;16.98;3.25;;;;;;;13.40;84.27;101023.56;5522837;25;20012;-42
2024/04/19 06:43:32;;;;;;;11.10;3.13;;;;;;;13.38;85.33;101028.78;5522174;25;20012;-40
2024/04/19 06:45:59;;;;;;;12.85;3.00;;;;;;;13.00;86.56;101011.97;5520616;26;20002;-41
2024/04/19 06:48:24;;;;;;;17.35;3.60;;;;;;;13.49;84.70;101010.50;5521695;25;20001;-40
2024/04/19 06:50:50;;;;;;;16.00;3.35;;;;;;;13.75;83.32;100993.13;5522730;25;20004;-41
2024/04/19 06:53:15;;;;;;;18.58;3.58;;;;;;;13.47;84.70;101016.63;5524006;25;20004;-40
2024/04/19 06:55:41;;;;;;;12.10;3.08;;;;;;;13.75;83.71;101007.97;5523035;25;20005;-41
2024/04/19 06:58:07;;;;;;;14.07;2.95;;;;;;;13.95;81.97;100994.91;5522943;25;20004;-40
2024/04/19 07:00:36;;;;;;;14.70;2.97;;;;;;;14.05;81.57;101001.91;5522784;25;20576;-41
2024/04/19 07:03:02;;;;;;;12.60;3.03;;;;;;;13.90;81.93;100991.41;5523049;25;20009;-41
2024/04/19 07:05:27;;;;;;;14.63;3.38;;;;;;;13.90;81.05;100984.44;5521606;25;20053;-42
2024/04/19 07:07:52;;;;;;;14.32;2.80;;;;;;;14.55;79.20;100994.97;5525933;25;20471;-43
2024/04/19 07:10:22;;;;;;;12.32;2.50;;;;;;;13.56;81.68;100988.69;5529520;25;19997;-40
2024/04/19 07:12:47;;;;;;;13.45;2.75;;;;;;;14.13;79.60;100998.44;5528621;25;20599;-43
2024/04/19 07:15:13;;;;;;;16.45;3.05;;;;;;;14.37;79.18;100987.09;5522494;25;19997;-44
2024/04/19 07:17:38;;;;;;;13.40;2.60;;;;;;;14.27;78.64;100987.09;5522196;25;20524;-40
2024/04/19 07:20:04;;;;;;;13.98;3.17;;;;;;;14.37;78.63;100986.19;5526029;25;20012;-41
2024/04/19 07:22:29;;;;;;;13.68;2.70;;;;;;;14.32;78.37;100996.69;5527972;25;19997;-43
2024/04/19 07:24:55;;;;;;;13.77;2.53;;;;;;;13.78;80.26;100998.34;5528244;25;20003;-41
2024/04/19 07:27:20;;;;;;;11.07;2.30;;;;;;;13.72;79.05;100995.72;5526970;25;20012;-41
2024/04/19 07:29:45;;;;;;;9.55;1.90;;;;;;;13.38;79.71;100991.25;5528262;25;20672;-40
2024/04/19 07:32:10;;;;;;;9.02;2.15;;;;;;;13.66;79.06;100989.63;5532374;25;20339;-44
2024/04/19 07:34:36;;;;;;;9.25;2.28;;;;;;;13.73;79.10;100986.13;5521531;25;20061;-41
2024/04/19 07:37:01;;;;;;;5.60;1.95;;;;;;;13.96;78.33;100991.41;5522060;25;20033;-41
2024/04/19 07:39:27;;;;;;;17.90;2.92;;;;;;;13.75;79.77;100982.63;5522136;25;20012;-41
2024/04/19 07:41:52;;;;;;;14.95;2.38;;;;;;;13.43;81.01;100979.03;5521781;25;20027;-41
2024/04/19 07:44:17;;;;;;;12.38;2.58;;;;;;;13.44;81.17;100982.53;5521647;25;20009;-41
2024/04/19 07:46:42;;;;;;;11.65;2.72;;;;;;;13.64;80.48;100984.38;5520421;25;20020;-41
2024/04/19 07:49:08;;;;;;;15.98;2.90;;;;;;;13.77;80.66;100980.03;5521709;25;20000;-41
2024/04/19 07:51:33;;;;;;;18.02;2.90;;;;;;;13.59;81.97;100991.34;5521320;25;20515;-42
2024/04/19 07:53:59;;;;;;;11.77;2.55;;;;;;;13.73;81.79;100978.25;5520321;25;19993;-40
2024/04/19 07:56:25;;;;;;;13.60;2.60;;;;;;;13.61;82.41;100983.47;5518487;25;20361;-40
2024/04/19 07:58:50;;;;;;;15.88;2.60;;;;;;;13.95;81.01;100980.06;5520969;25;20016;-42
2024/04/19 08:01:16;;;;;;;13.55;2.70;;;;;;;14.16;78.83;100976.56;5521374;25;19993;-39
2024/04/19 08:03:41;;;;;;;15.48;2.80;;;;;;;14.50;79.05;100977.47;5520663;25;20456;-37
2024/04/19 08:06:07;;;;;;;18.55;2.63;;;;;;;14.44;79.25;100977.47;5520931;25;19998;-40
2024/04/19 08:08:32;;;;;;;16.50;2.60;;;;;;;14.06;79.18;100988.81;5520046;25;20070;-44
2024/04/19 08:10:57;;;;;;;16.33;2.78;;;;;;;14.19;79.89;100987.06;5521618;25;20009;-43
2024/04/19 08:13:24;;;;;;;12.63;2.72;;;;;;;13.69;80.19;100985.25;5519038;25;20074;-41
2024/04/19 08:15:50;;;;;;;18.05;3.00;;;;;;;14.06;79.79;100966.97;5520454;25;19997;-42
2024/04/19 08:18:15;;;;;;;15.48;3.00;;;;;;;14.25;78.87;100984.44;5518696;26;20026;-42
2024/04/19 08:20:40;;;;;;;14.88;2.50;;;;;;;14.49;78.54;100983.59;5520453;25;20066;-41
2024/04/19 08:23:06;;;;;;;13.10;2.80;;;;;;;14.23;78.82;100986.19;5518477;26;19994;-41
2024/04/19 08:25:31;;;;;;;11.38;2.58;;;;;;;13.95;78.88;100995.78;5519855;25;20323;-40
2024/04/19 08:27:56;;;;;;;14.90;2.50;;;;;;;14.48;77.82;100987.97;5519318;25;19997;-42
2024/04/19 08:30:22;;;;;;;13.00;2.35;;;;;;;13.84;78.83;100991.41;5524126;25;19997;-41
2024/04/19 08:32:47;;;;;;;15.38;2.45;;;;;;;14.14;79.86;100984.47;5524816;25;20002;-41
2024/04/19 08:35:13;;;;;;;17.83;2.90;;;;;;;14.40;79.22;100999.31;5524876;25;19998;-40
2024/04/19 08:37:38;;;;;;;15.13;2.80;;;;;;;14.58;79.53;100994.94;5524134;25;20001;-40
2024/04/19 08:40:04;;;;;;;13.93;2.60;;;;;;;14.38;79.02;100998.47;5524018;25;20464;-42
2024/04/19 08:42:29;;;;;;;14.73;2.60;;;;;;;14.68;77.96;100995.81;5523481;25;20008;-41
2024/04/19 08:44:54;;;;;;;9.60;2.15;;;;;;;14.27;78.42;100980.09;5524324;25;20002;-41
2024/04/19 08:47:20;;;;;;;17.10;2.40;;;;;;;14.11;78.54;100997.53;5524137;25;19997;-42
2024/04/19 08:49:47;;;;;;;20.23;2.80;;;;;;;14.09;79.98;101008.88;5523798;25;19998;-41
2024/04/19 08:52:15;;;;;;;19.65;2.90;;;;;;;14.25;80.13;100997.56;5525710;25;20001;-41
2024/04/19 08:54:43;;;;;;;23.25;2.92;;;;;;;14.61;78.38;100999.31;5525646;25;20164;-42
2024/04/19 08:57:09;;;;;;;16.75;2.60;;;;;;;14.11;79.08;101000.16;5525093;25;20012;-41
2024/04/19 08:59:36;;;;;;;12.85;2.70;;;;;;;14.60;77.62;101006.31;5523986;25;20577;-42
2024/04/19 09:02:02;;;;;;;13.48;2.55;;;;;;;14.40;76.96;101009.81;5524739;25;20666;-41
2024/04/19 09:04:27;;;;;;;15.57;2.95;;;;;;;14.61;77.78;101007.19;5526726;25;20001;-41
2024/04/19 09:06:52;;;;;;;12.35;2.50;;;;;;;14.16;77.22;101005.41;5530055;25;20043;-44
2024/04/19 09:09:18;;;;;;;16.52;2.60;;;;;;;14.42;76.94;101008.06;5530139;25;19997;-42
2024/04/19 09:11:44;;;;;;;15.65;2.85;;;;;;;14.26;76.39;101003.69;5526892;25;20042;-42
2024/04/19 09:14:12;;;;;;;13.07;2.50;;;;;;;14.71;76.52;101008.94;5529572;25;20069;-42
2024/04/19 09:16:38;;;;;;;16.15;2.75;;;;;;;13.99;76.25;101020.25;5527148;25;20009;-42
2024/04/19 09:19:06;;;;;;;15.80;2.83;;;;;;;14.45;76.27;101018.59;5556228;25;20038;-43
2024/04/19 09:21:31;;;;;;;14.63;2.85;;;;;;;15.10;74.87;101015.84;5529390;25;20013;-40
2024/04/19 09:23:56;;;;;;;13.80;2.80;;;;;;;14.94;74.14;101009.75;5527847;25;20348;-41
2024/04/19 09:26:22;;;;;;;13.90;2.90;;;;;;;15.03;73.16;101016.75;5525825;25;20013;-37
2024/04/19 09:28:50;;;;;;;12.43;2.75;;;;;;;15.06;72.66;101018.50;5553594;25;19993;-40
2024/04/19 09:31:15;;;;;;;16.83;2.50;;;;;;;14.41;73.58;101014.19;5523906;25;20372;-43
2024/04/19 09:33:41;;;;;;;14.27;2.63;;;;;;;14.61;73.05;101010.69;5523408;25;20070;-40
2024/04/19 09:36:07;;;;;;;17.38;2.88;;;;;;;15.00;72.29;101015.00;5524914;25;20081;-41
2024/04/19 09:38:36;;;;;;;21.25;2.90;;;;;;;15.09;72.99;101013.22;5525173;25;20646;-41
2024/04/19 09:41:03;;;;;;;14.77;2.50;;;;;;;15.43;71.02;101014.84;5524277;25;20001;-40
2024/04/19 09:43:33;;;;;;;12.75;2.70;;;;;;;14.88;72.65;101022.03;5525635;25;19997;-42
2024/04/19 09:46:00;;;;;;;17.20;2.92;;;;;;;14.65;72.26;101026.44;5525328;25;20031;-42
2024/04/19 09:48:35;;;;;;;12.82;2.72;;;;;;;14.81;72.00;101023.81;5524617;25;19998;-41
2024/04/19 09:51:05;;;;;;;13.55;2.65;;;;;;;14.55;72.47;101023.81;5525924;25;19998;-41
2024/04/19 09:53:37;;;;;;;12.85;2.50;;;;;;;15.06;70.69;101029.88;5524793;25;20444;-42
2024/04/19 09:56:24;;;;;;;12.15;2.55;;;;;;;14.20;71.17;101039.53;5526247;25;19997;-41
2024/04/19 09:58:51;;;;;;;9.23;2.20;;;;;;;14.29;72.56;101032.50;5526123;25;20045;-43
2024/04/19 10:01:17;;;;;;;15.30;2.50;;;;;;;14.85;71.68;101036.03;5525503;25;20004;-41
2024/04/19 10:03:45;;;;;;;18.92;2.47;;;;;;;14.41;72.10;101030.81;5523122;25;19998;-41
2024/04/19 10:06:13;;;;;;;16.88;2.30;;;;;;;15.09;69.25;101028.97;5522650;25;20001;-41
2024/04/19 10:08:39;;;;;;;14.32;2.72;;;;;;;14.93;69.34;101036.91;5522099;25;20106;-42
2024/04/19 10:11:05;;;;;;;16.70;2.50;;;;;;;14.78;70.18;101030.78;5523188;25;20001;-41
2024/04/19 10:13:31;;;;;;;10.20;2.60;;;;;;;14.93;70.32;101043.91;5522035;25;20448;-41
2024/04/19 10:15:57;;;;;;;13.57;2.40;;;;;;;14.54;71.39;101043.06;5523536;25;20065;-42
2024/04/19 10:18:24;;;;;;;13.13;2.70;;;;;;;14.77;69.89;101037.78;5522337;25;20008;-42
2024/04/19 10:20:49;;;;;;;10.52;2.22;;;;;;;14.91;69.50;101049.16;5522321;25;20065;-42
2024/04/19 10:23:21;;;;;;;14.40;2.50;;;;;;;15.33;70.31;101028.91;5522806;25;20472;-41
2024/04/19 10:25:46;;;;;;;14.27;2.58;;;;;;;14.98;68.40;101040.41;5522252;25;20006;-41
2024/04/19 10:28:12;;;;;;;13.05;2.50;;;;;;;14.50;70.11;101045.69;5522450;25;20102;-41
2024/04/19 10:30:40;;;;;;;14.27;2.35;;;;;;;14.79;70.02;101038.66;5522221;25;20042;-41
2024/04/19 10:33:08;;;;;;;19.13;2.60;;;;;;;15.00;69.10;101041.25;5524372;25;20016;-44
2024/04/19 10:35:45;;;;;;;12.57;2.40;;;;;;;14.68;71.08;101032.56;5523311;25;19998;-42
2024/04/19 10:38:12;;;;;;;11.02;2.80;;;;;;;14.32;72.08;101049.16;5522257;25;20030;-44
2024/04/19 10:40:37;;;;;;;16.88;2.30;;;;;;;14.50;70.55;101041.31;5521730;25;20005;-44
2024/04/19 10:43:07;;;;;;;18.10;2.60;;;;;;;14.55;69.80;101029.06;5520519;26;20017;-41
2024/04/19 10:45:34;;;;;;;15.38;2.53;;;;;;;14.90;68.35;101033.41;5522414;25;20053;-42
2024/04/19 10:48:00;;;;;;;10.60;2.22;;;;;;;15.54;66.34;101030.63;5522137;25;20005;-41
2024/04/19 10:50:27;;;;;;;16.70;2.55;;;;;;;15.09;69.10;101032.47;5520621;25;20466;-41
2024/04/19 10:52:53;;;;;;;15.20;2.20;;;;;;;14.91;67.83;101035.16;5522722;25;20001;-44
2024/04/19 10:55:19;;;;;;;11.88;2.22;;;;;;;14.85;68.02;101040.41;5521977;25;19997;-44
2024/04/19 10:57:44;;;;;;;13.63;2.55;;;;;;;15.10;67.61;101049.13;5521636;25;20008;-40
2024/04/19 11:00:12;;;;;;;11.45;2.17;;;;;;;13.92;69.49;101044.69;5521956;25;20005;-41
2024/04/19 11:02:39;;;;;;;11.80;1.80;;;;;;;14.41;70.51;101045.66;5521504;25;19998;-43
2024/04/19 11:05:05;;;;;;;10.57;2.05;;;;;;;13.88;72.84;101051.69;5523044;25;20001;-41
2024/04/19 11:07:32;;;;;;;14.45;2.45;;;;;;;13.66;74.24;101060.34;5521308;25;20008;-41
2024/04/19 11:09:57;;;;;;;18.50;2.67;;;;;;;13.45;75.35;101037.56;5521675;25;19993;-41
2024/04/19 11:12:25;;;;;;;13.68;1.90;;;;;;;13.54;74.86;101068.16;5521638;25;20009;-41
2024/04/19 11:14:51;;;;;;;14.70;2.03;;;;;;;13.77;75.83;101058.63;5521609;25;20030;-42